Marmora, Canada
Current Conditions -  °F | °C
As of 6:00 PM on Saturday 25 Oct 2014 (Local Time) from CYTR Reporting Station
Few Clouds Few Clouds  
Wind Chill: 59°   Ceiling: Unl
Heat Index: 59°   Visibility: 15mi
Dew Point: 46°   Wind: 12mph
Humidity: 63%   Direction: 270°W
Pressure: 29.54"   Gusts: NA
Location:  44.48°N, 77.68°W
Report Text: CYTR 252200Z 27010KT 15SM FEW025 15/08 A2954 RMK CU2 SLP006
Loading
Personal Weather Stations






























Interactive Weather Map
Tropical Storm Tracking
New forecast layout! Learn more

10-Day Weather Forecast

Advertisements
Track Severe Weather on mobile